Time;durP1;ratioP1;P1;durP2;ratioP2;P2;SDS_P1;SDS_P2;PMS_P1;PMS_P2;Temp;Humidity;BMP_temperature;BMP_pressure;BME280_temperature;BME280_humidity;BME280_pressure;Samples;Min_cycle;Max_cycle;Signal;HPM_P1;HPM_P2
2022/11/11 00:00:24;;;;;;;14.55;7.07;;;11.50;99.90;;;;;;5090313;28;20123;-74
2022/11/11 00:02:50;;;;;;;15.93;6.95;;;12.10;99.90;;;;;;5090830;28;20131;-75
2022/11/11 00:05:16;;;;;;;19.42;7.95;;;11.50;99.90;;;;;;5090755;28;20072;-74
2022/11/11 00:07:43;;;;;;;17.33;8.13;;;11.50;99.90;;;;;;5090486;28;20048;-73
2022/11/11 00:10:09;;;;;;;15.18;7.47;;;12.10;99.90;;;;;;5091102;28;20040;-73
2022/11/11 00:12:35;;;;;;;12.15;7.10;;;11.80;99.90;;;;;;5072316;28;20054;-75
2022/11/11 00:15:01;;;;;;;24.63;8.57;;;11.70;99.90;;;;;;5071955;28;20130;-75
2022/11/11 00:25:39;;;;;;;18.47;8.57;;;11.50;99.90;;;;;;5090995;28;20756;-76
2022/11/11 00:28:05;;;;;;;21.70;8.10;;;11.50;99.90;;;;;;5090778;28;20127;-74
2022/11/11 00:30:31;;;;;;;18.30;8.02;;;11.50;99.90;;;;;;5090007;28;20048;-74
2022/11/11 00:32:57;;;;;;;21.00;8.23;;;11.50;99.90;;;;;;5090332;28;20036;-74
2022/11/11 00:38:45;;;;;;;18.80;8.60;;;11.50;99.90;;;;;;5090482;28;20040;-76
2022/11/11 00:41:04;;;;;;;21.75;8.88;;;11.50;99.90;;;;;;5086177;28;20426;-73
2022/11/11 00:43:30;;;;;;;17.65;8.18;;;11.50;99.90;;;;;;5090037;28;20185;-74
2022/11/11 00:50:57;;;;;;;21.33;8.65;;;11.90;99.90;;;;;;5090076;28;20520;-75
2022/11/11 00:51:26;;;;;;;16.88;7.85;;;11.70;99.90;;;;;;5090146;28;20043;-74
2022/11/11 00:53:52;;;;;;;17.92;8.43;;;12.20;99.90;;;;;;5071843;28;20518;-74
2022/11/11 00:56:18;;;;;;;21.40;9.27;;;12.20;99.90;;;;;;5090224;28;20456;-76
2022/11/11 00:58:44;;;;;;;18.25;8.40;;;11.50;99.90;;;;;;5089944;28;20055;-74
2022/11/11 01:01:09;;;;;;;20.40;8.30;;;11.50;99.90;;;;;;5089751;28;20123;-73
2022/11/11 01:03:35;;;;;;;19.88;8.65;;;11.50;99.90;;;;;;5089993;28;20048;-74
2022/11/11 01:06:02;;;;;;;17.13;8.23;;;11.50;99.90;;;;;;5089872;28;20044;-72
2022/11/11 01:08:28;;;;;;;22.13;8.90;;;11.70;99.90;;;;;;5089314;28;20616;-74
2022/11/11 01:10:54;;;;;;;18.33;8.98;;;11.50;99.90;;;;;;5089980;28;20127;-74
2022/11/11 01:13:21;;;;;;;20.33;8.35;;;12.10;99.90;;;;;;5089915;28;20082;-73
2022/11/11 01:15:50;;;;;;;18.85;8.88;;;11.50;99.90;;;;;;5089484;28;20544;-73
2022/11/11 01:18:18;;;;;;;18.38;8.88;;;11.90;99.90;;;;;;5089605;28;20048;-74
2022/11/11 01:20:45;;;;;;;19.50;8.80;;;11.50;99.90;;;;;;5089803;28;20111;-73
2022/11/11 01:23:12;;;;;;;28.40;9.57;;;11.50;99.90;;;;;;5089610;28;20470;-74
2022/11/11 01:25:39;;;;;;;18.73;8.75;;;11.50;99.90;;;;;;5090672;28;20430;-74
2022/11/11 01:28:06;;;;;;;19.50;9.52;;;11.50;99.90;;;;;;5093982;28;20048;-74
2022/11/11 01:30:33;;;;;;;16.67;8.73;;;11.50;99.90;;;;;;5093711;28;20052;-73
2022/11/11 01:32:59;;;;;;;23.17;9.10;;;12.10;99.90;;;;;;5093234;28;20040;-75
2022/11/11 01:35:25;;;;;;;20.48;9.38;;;11.50;99.90;;;;;;5093852;28;20055;-73
2022/11/11 01:37:51;;;;;;;19.15;9.18;;;11.50;99.90;;;;;;5093661;28;20048;-74
2022/11/11 01:40:17;;;;;;;19.88;9.18;;;12.00;99.90;;;;;;5093691;28;20039;-75
2022/11/11 01:42:51;;;;;;;19.63;9.10;;;11.50;99.90;;;;;;5093276;28;20040;-74
2022/11/11 01:45:47;;;;;;;22.40;9.45;;;11.50;99.90;;;;;;5093573;28;20123;-74
2022/11/11 01:51:48;;;;;;;20.45;9.70;;;11.50;99.90;;;;;;5093587;28;19924;-75
2022/11/11 01:54:20;;;;;;;24.60;10.13;;;11.50;99.90;;;;;;5093051;28;20131;-75
2022/11/11 01:56:50;;;;;;;18.65;9.00;;;12.20;99.90;;;;;;5074984;28;20044;-74
2022/11/11 01:59:17;;;;;;;16.63;8.68;;;12.00;99.90;;;;;;5093467;28;20561;-73
2022/11/11 02:01:44;;;;;;;18.63;8.95;;;11.50;99.90;;;;;;5093606;28;20126;-74
2022/11/11 02:06:58;;;;;;;18.27;10.32;;;11.50;99.90;;;;;;5093297;28;20051;-76
2022/11/11 02:09:25;;;;;;;26.80;9.50;;;12.10;99.90;;;;;;5093127;28;20048;-76
2022/11/11 02:14:44;;;;;;;17.50;9.18;;;11.50;99.90;;;;;;5093214;28;20058;-73
2022/11/11 02:17:12;;;;;;;19.50;9.75;;;11.50;99.90;;;;;;5093214;28;20043;-75
2022/11/11 02:19:57;;;;;;;21.65;10.23;;;11.50;99.90;;;;;;5092532;28;20044;-75
2022/11/11 02:22:35;;;;;;;20.00;10.30;;;11.50;99.90;;;;;;5092881;28;20047;-73
2022/11/11 02:25:04;;;;;;;18.48;9.93;;;11.50;99.90;;;;;;5092397;28;20499;-75
2022/11/11 02:27:31;;;;;;;20.85;10.82;;;11.50;99.90;;;;;;5092527;28;20044;-74
2022/11/11 02:29:59;;;;;;;19.50;10.68;;;11.50;99.90;;;;;;5072427;28;20059;-74
2022/11/11 02:32:24;;;;;;;19.85;10.70;;;11.60;99.90;;;;;;5071007;28;20059;-74
2022/11/11 02:34:50;;;;;;;24.13;11.20;;;11.90;99.90;;;;;;5072090;28;20044;-74
2022/11/11 02:37:20;;;;;;;17.42;10.23;;;11.50;99.90;;;;;;5072212;28;20044;-73
2022/11/11 02:39:51;;;;;;;20.77;11.27;;;11.50;99.90;;;;;;5082548;28;20119;-75
2022/11/11 02:42:20;;;;;;;20.38;11.32;;;11.40;99.90;;;;;;5092330;28;20797;-74
2022/11/11 02:44:45;;;;;;;22.27;11.55;;;11.40;99.90;;;;;;5092055;28;20097;-73
2022/11/11 02:47:12;;;;;;;23.30;12.00;;;11.40;99.90;;;;;;5092131;28;20044;-74
2022/11/11 02:49:40;;;;;;;25.83;12.32;;;11.40;99.90;;;;;;5092113;28;20074;-74
2022/11/11 02:52:06;;;;;;;29.23;13.10;;;11.30;99.90;;;;;;5092261;28;20044;-74
2022/11/11 02:54:32;;;;;;;23.30;13.38;;;11.30;99.90;;;;;;5073843;28;20440;-74
2022/11/11 02:57:07;;;;;;;29.05;13.40;;;11.70;99.90;;;;;;5092270;28;20055;-74
2022/11/11 02:59:34;;;;;;;23.30;13.40;;;11.20;99.90;;;;;;5092017;28;20108;-73
2022/11/11 03:02:00;;;;;;;20.85;14.10;;;11.50;99.90;;;;;;5091018;28;20040;-74
2022/11/11 03:04:25;;;;;;;24.42;14.23;;;11.20;99.90;;;;;;5073275;28;20470;-74
2022/11/11 03:06:51;;;;;;;24.42;14.30;;;11.20;99.90;;;;;;5092190;28;20125;-74
2022/11/11 03:09:17;;;;;;;23.92;14.90;;;11.10;99.90;;;;;;5091538;28;20445;-73
2022/11/11 03:11:43;;;;;;;24.02;15.00;;;11.10;99.90;;;;;;5091549;28;20135;-73
2022/11/11 03:14:08;;;;;;;26.75;15.38;;;11.10;99.90;;;;;;5091447;28;20155;-74
2022/11/11 03:19:19;;;;;;;27.48;16.38;;;11.10;99.90;;;;;;5092022;28;20118;-74
2022/11/11 03:21:44;;;;;;;28.27;16.75;;;11.00;99.90;;;;;;5091401;28;20048;-73
2022/11/11 03:24:10;;;;;;;31.92;15.63;;;11.00;99.90;;;;;;5091402;28;20441;-74
2022/11/11 03:26:36;;;;;;;29.30;16.27;;;11.00;99.90;;;;;;5091589;28;20082;-73
2022/11/11 03:29:03;;;;;;;33.55;16.20;;;11.00;99.90;;;;;;5091381;28;20056;-75
2022/11/11 03:31:28;;;;;;;27.65;17.50;;;11.00;99.90;;;;;;5091226;28;20036;-73
2022/11/11 03:39:26;;;;;;;26.35;17.05;;;11.00;99.90;;;;;;5091348;28;20040;-73
2022/11/11 03:41:51;;;;;;;29.73;16.60;;;10.90;99.90;;;;;;5091344;28;20513;-73
2022/11/11 03:44:17;;;;;;;30.00;18.63;;;10.90;99.90;;;;;;5091777;28;20131;-74
2022/11/11 03:46:43;;;;;;;32.35;17.35;;;10.90;99.90;;;;;;5091046;28;20050;-74
2022/11/11 03:49:08;;;;;;;29.08;17.70;;;11.40;99.90;;;;;;5090115;28;20047;-73
2022/11/11 03:51:34;;;;;;;30.65;16.40;;;10.90;99.90;;;;;;5090499;28;20040;-74
2022/11/11 03:54:00;;;;;;;32.25;18.45;;;10.90;99.90;;;;;;5090515;28;20105;-73
2022/11/11 03:56:25;;;;;;;31.48;18.23;;;11.20;99.90;;;;;;5071498;28;20048;-73
2022/11/11 03:58:51;;;;;;;26.58;16.98;;;10.90;99.90;;;;;;5090161;28;20453;-73
2022/11/11 04:12:14;;;;;;;35.55;19.88;;;10.90;99.90;;;;;;5090738;28;20282;-74
2022/11/11 04:17:24;;;;;;;27.17;18.40;;;10.90;99.90;;;;;;5072089;28;20570;-76
2022/11/11 04:22:40;;;;;;;30.98;19.80;;;10.80;99.90;;;;;;5090067;28;20102;-73
2022/11/11 04:29:27;;;;;;;35.22;19.63;;;10.80;99.90;;;;;;5090385;28;20101;-73
2022/11/11 04:30:36;;;;;;;33.90;19.75;;;10.80;99.90;;;;;;5090159;28;20040;-73
2022/11/11 04:33:02;;;;;;;36.60;19.17;;;10.80;99.90;;;;;;5089962;28;20052;-73
2022/11/11 04:35:28;;;;;;;32.05;19.73;;;10.80;99.90;;;;;;5072062;28;20086;-74
2022/11/11 04:41:02;;;;;;;33.90;20.40;;;11.60;99.90;;;;;;5072225;28;20040;-74
2022/11/11 04:43:23;;;;;;;34.47;18.83;;;10.90;99.90;;;;;;5090311;28;20566;-74
2022/11/11 04:45:49;;;;;;;33.28;19.73;;;10.80;99.90;;;;;;5089563;28;20115;-74
2022/11/11 04:48:17;;;;;;;38.47;19.67;;;11.40;99.90;;;;;;5090265;28;20147;-74
2022/11/11 04:50:43;;;;;;;31.10;20.15;;;11.40;99.90;;;;;;5089951;28;20055;-76
2022/11/11 04:53:14;;;;;;;33.10;20.25;;;11.40;99.90;;;;;;5090049;28;20116;-73
2022/11/11 04:58:28;;;;;;;33.78;20.85;;;11.50;99.90;;;;;;5090113;28;20121;-74
2022/11/11 05:00:53;;;;;;;28.75;19.90;;;11.40;99.90;;;;;;5088874;28;20044;-75
2022/11/11 05:03:22;;;;;;;35.95;21.10;;;11.30;99.90;;;;;;5089852;28;20039;-75
2022/11/11 05:11:28;;;;;;;31.48;21.10;;;10.60;99.90;;;;;;5062776;28;20052;-74
2022/11/11 05:22:31;;;;;;;37.27;21.30;;;10.70;99.90;;;;;;5089904;28;20387;-74
2022/11/11 05:27:41;;;;;;;37.17;23.03;;;10.90;99.90;;;;;;5089419;28;20048;-73
2022/11/11 05:30:10;;;;;;;36.45;21.48;;;10.90;99.90;;;;;;5089483;28;20052;-73
2022/11/11 05:32:36;;;;;;;37.70;21.48;;;10.60;99.90;;;;;;5089578;28;20040;-73
2022/11/11 05:35:02;;;;;;;35.22;21.98;;;11.40;99.90;;;;;;5089683;28;20084;-73
2022/11/11 05:37:28;;;;;;;36.90;20.35;;;10.50;99.90;;;;;;5089526;28;20040;-73
2022/11/11 05:39:54;;;;;;;37.63;21.50;;;10.50;99.90;;;;;;5089132;28;20565;-74
2022/11/11 05:42:19;;;;;;;32.95;22.20;;;10.50;99.90;;;;;;5089499;28;20135;-74
2022/11/11 05:44:45;;;;;;;36.40;21.35;;;11.30;99.90;;;;;;5089739;28;20048;-74
2022/11/11 05:47:11;;;;;;;38.13;22.15;;;10.40;99.90;;;;;;5089663;28;20097;-73
2022/11/11 05:49:36;;;;;;;32.70;21.75;;;10.90;99.90;;;;;;5054533;28;20476;-73
2022/11/11 05:52:03;;;;;;;34.78;21.33;;;10.40;99.90;;;;;;5089001;28;20044;-74
2022/11/11 05:54:29;;;;;;;36.42;21.40;;;10.40;99.90;;;;;;5089468;28;20085;-73
2022/11/11 05:56:54;;;;;;;37.00;22.05;;;11.20;99.90;;;;;;5089707;28;20047;-75
2022/11/11 05:59:20;;;;;;;37.00;21.58;;;11.10;99.90;;;;;;5089247;28;20044;-74
2022/11/11 06:01:46;;;;;;;34.08;21.00;;;11.40;99.90;;;;;;5089522;28;20051;-74
2022/11/11 06:04:12;;;;;;;33.97;20.58;;;10.50;99.90;;;;;;5089321;28;20044;-74
2022/11/11 06:06:38;;;;;;;37.55;20.83;;;10.60;99.90;;;;;;5089333;28;20513;-75
2022/11/11 06:09:04;;;;;;;35.33;20.85;;;10.60;99.90;;;;;;5089151;28;20048;-74
2022/11/11 06:11:30;;;;;;;36.33;20.20;;;10.70;99.90;;;;;;5089825;28;20047;-73
2022/11/11 06:13:56;;;;;;;35.42;20.30;;;10.70;99.90;;;;;;5093122;28;20064;-73
2022/11/11 06:16:22;;;;;;;34.63;19.73;;;10.80;99.90;;;;;;5093011;28;20591;-74
2022/11/11 06:18:49;;;;;;;37.90;21.45;;;10.80;99.90;;;;;;5092978;28;20394;-74
2022/11/11 06:21:14;;;;;;;33.25;20.95;;;10.80;99.90;;;;;;5092690;28;20047;-73
2022/11/11 06:23:40;;;;;;;37.03;21.33;;;10.90;99.90;;;;;;5092619;28;20040;-75
2022/11/11 06:26:12;;;;;;;35.25;21.55;;;10.80;99.90;;;;;;5092560;28;20048;-74
2022/11/11 06:28:46;;;;;;;32.47;20.95;;;10.80;99.90;;;;;;5074267;28;20475;-75
2022/11/11 06:31:15;;;;;;;40.30;22.55;;;10.80;99.90;;;;;;5092737;28;20056;-73
2022/11/11 06:33:41;;;;;;;35.88;21.88;;;10.80;99.90;;;;;;5092586;28;20530;-75
2022/11/11 06:36:09;;;;;;;37.15;21.92;;;10.80;99.90;;;;;;5074065;28;20128;-73
2022/11/11 06:38:35;;;;;;;37.08;22.15;;;11.00;99.90;;;;;;5092564;28;20047;-75
2022/11/11 06:41:01;;;;;;;37.20;22.85;;;11.50;99.90;;;;;;5092019;28;20429;-75
2022/11/11 06:43:26;;;;;;;34.13;22.98;;;11.30;99.90;;;;;;5092410;28;20419;-74
2022/11/11 06:45:53;;;;;;;35.80;21.98;;;10.80;99.90;;;;;;5092407;28;20076;-75
2022/11/11 06:48:24;;;;;;;36.28;21.77;;;10.80;99.90;;;;;;5092215;28;20062;-75
2022/11/11 06:50:50;;;;;;;39.05;23.95;;;11.20;99.90;;;;;;5091971;28;20040;-74
2022/11/11 06:53:19;;;;;;;39.67;23.27;;;10.80;99.90;;;;;;5091977;28;20097;-74
2022/11/11 06:55:44;;;;;;;36.60;23.77;;;10.80;99.90;;;;;;5073813;28;20048;-74
2022/11/11 06:58:15;;;;;;;42.63;23.17;;;10.80;99.90;;;;;;5092223;28;20548;-74
2022/11/11 07:00:42;;;;;;;35.97;23.88;;;10.80;99.90;;;;;;5091834;28;20047;-74
2022/11/11 07:03:11;;;;;;;41.42;24.13;;;10.90;99.90;;;;;;5092193;28;20093;-74
2022/11/11 07:05:36;;;;;;;39.88;22.45;;;10.90;99.90;;;;;;5091896;28;20036;-75
2022/11/11 07:08:04;;;;;;;35.67;23.02;;;10.80;99.90;;;;;;5073634;28;20044;-75
2022/11/11 07:10:31;;;;;;;33.85;22.40;;;10.80;99.90;;;;;;5074010;28;20047;-76
2022/11/11 07:12:56;;;;;;;40.13;24.38;;;10.90;99.90;;;;;;5091763;28;20047;-75
2022/11/11 07:15:22;;;;;;;37.63;23.73;;;10.80;99.90;;;;;;5091743;28;20455;-75
2022/11/11 07:17:49;;;;;;;39.95;23.75;;;10.80;99.90;;;;;;5073801;28;20588;-73
2022/11/11 07:20:14;;;;;;;42.60;24.50;;;10.80;99.90;;;;;;5091284;28;20123;-74
2022/11/11 07:22:40;;;;;;;37.55;22.50;;;10.80;99.90;;;;;;5091343;28;20043;-74
2022/11/11 07:25:06;;;;;;;34.45;22.00;;;10.80;99.90;;;;;;5072577;28;20105;-73
2022/11/11 07:27:37;;;;;;;37.97;22.45;;;10.80;99.90;;;;;;5091323;28;20137;-73
2022/11/11 07:30:03;;;;;;;37.40;23.40;;;10.80;99.90;;;;;;5091178;28;20471;-75
2022/11/11 07:32:29;;;;;;;40.90;23.77;;;10.80;99.90;;;;;;5091552;28;20096;-74
2022/11/11 07:34:55;;;;;;;32.53;23.45;;;10.80;99.90;;;;;;5091396;28;20071;-75
2022/11/11 07:37:21;;;;;;;39.28;23.40;;;10.80;99.90;;;;;;5091515;28;20126;-75
2022/11/11 07:39:46;;;;;;;37.88;23.90;;;11.40;99.90;;;;;;5091010;28;20487;-75
2022/11/11 07:42:12;;;;;;;38.33;22.85;;;10.70;99.90;;;;;;5091185;28;20036;-74
2022/11/11 07:44:37;;;;;;;34.78;21.10;;;10.80;99.90;;;;;;5091310;28;20032;-75
2022/11/11 07:47:03;;;;;;;36.03;23.77;;;10.80;99.90;;;;;;5090955;28;20388;-73
2022/11/11 07:49:29;;;;;;;37.60;23.20;;;10.80;99.90;;;;;;5089895;28;20044;-74
2022/11/11 07:51:57;;;;;;;36.55;23.50;;;10.80;99.90;;;;;;5090891;28;20407;-75
2022/11/11 07:54:23;;;;;;;35.70;23.40;;;10.80;99.90;;;;;;5090890;28;20153;-74
2022/11/11 07:56:48;;;;;;;31.67;22.38;;;10.80;99.90;;;;;;5091170;28;20130;-73
2022/11/11 07:59:14;;;;;;;34.60;19.88;;;10.80;99.90;;;;;;5090389;28;20402;-74
2022/11/11 08:01:39;;;;;;;37.78;22.77;;;10.80;99.90;;;;;;5090539;28;20055;-75
2022/11/11 08:04:05;;;;;;;36.75;22.38;;;11.00;99.90;;;;;;5091006;28;20044;-73
2022/11/11 08:06:31;;;;;;;37.80;21.83;;;10.90;99.90;;;;;;5072215;28;20063;-74
2022/11/11 08:08:56;;;;;;;37.53;23.20;;;10.90;99.90;;;;;;5090406;28;20036;-73
2022/11/11 08:14:20;;;;;;;36.75;22.67;;;10.90;99.90;;;;;;5027968;28;20064;-74
2022/11/11 08:16:45;;;;;;;36.63;22.13;;;10.90;99.90;;;;;;5038743;28;20049;-75
2022/11/11 08:19:11;;;;;;;36.17;22.95;;;10.90;99.90;;;;;;5048026;28;20056;-75
2022/11/11 08:21:37;;;;;;;38.33;21.92;;;11.40;99.90;;;;;;5031781;28;20119;-76
2022/11/11 08:24:02;;;;;;;39.42;22.60;;;10.90;99.90;;;;;;5048027;28;20140;-75
2022/11/11 08:26:28;;;;;;;41.00;22.27;;;10.90;99.90;;;;;;5048252;28;20045;-75
2022/11/11 08:28:54;;;;;;;40.35;23.50;;;11.00;99.90;;;;;;5047929;28;20201;-74
2022/11/11 08:31:20;;;;;;;37.38;22.75;;;11.70;99.90;;;;;;5048002;28;20060;-76
2022/11/11 08:33:45;;;;;;;33.65;21.73;;;11.10;99.90;;;;;;5047839;28;20049;-74
2022/11/11 08:36:11;;;;;;;35.00;21.80;;;10.90;99.90;;;;;;5047290;28;20056;-73
2022/11/11 08:38:38;;;;;;;36.83;21.85;;;10.90;99.90;;;;;;5047583;28;20488;-76
2022/11/11 08:41:06;;;;;;;39.63;22.20;;;10.90;99.90;;;;;;5047354;28;20052;-75
2022/11/11 08:43:32;;;;;;;39.00;21.63;;;11.00;99.90;;;;;;5047470;28;20083;-74
2022/11/11 08:46:02;;;;;;;34.85;22.10;;;11.00;99.90;;;;;;5042857;28;20091;-73
2022/11/11 08:48:29;;;;;;;34.88;22.02;;;10.90;99.90;;;;;;5047459;28;20049;-75
2022/11/11 08:50:55;;;;;;;37.83;22.15;;;11.00;99.90;;;;;;5086371;28;20075;-77
2022/11/11 08:53:21;;;;;;;41.53;22.13;;;11.10;99.90;;;;;;5089944;28;20044;-77
2022/11/11 08:55:47;;;;;;;33.50;21.15;;;10.90;99.90;;;;;;5089242;28;20436;-74
2022/11/11 08:58:13;;;;;;;34.92;20.05;;;10.90;99.90;;;;;;5089313;28;20035;-71
2022/11/11 09:00:39;;;;;;;36.00;20.85;;;10.90;99.90;;;;;;5089434;28;20082;-73
2022/11/11 09:03:09;;;;;;;35.53;21.08;;;10.90;99.90;;;;;;5089651;28;20553;-73
2022/11/11 09:05:38;;;;;;;31.85;20.77;;;11.10;99.90;;;;;;5090419;28;20391;-73
2022/11/11 09:08:08;;;;;;;34.92;20.98;;;10.90;99.90;;;;;;5072051;28;20050;-75
2022/11/11 09:10:34;;;;;;;35.42;20.45;;;10.90;99.90;;;;;;5090427;28;20414;-73
2022/11/11 09:13:00;;;;;;;34.28;20.40;;;10.90;99.90;;;;;;5090172;28;20051;-73
2022/11/11 09:15:27;;;;;;;33.53;19.52;;;11.00;99.90;;;;;;5089716;28;20052;-74
2022/11/11 09:17:53;;;;;;;30.25;18.55;;;11.00;99.90;;;;;;5086283;28;20115;-75
2022/11/11 09:20:19;;;;;;;29.92;19.65;;;11.20;99.90;;;;;;5072098;28;20340;-77
2022/11/11 09:22:47;;;;;;;35.55;20.35;;;10.90;99.90;;;;;;5090082;28;20040;-76
2022/11/11 09:25:13;;;;;;;36.53;20.08;;;11.00;99.90;;;;;;5089815;28;20060;-76
2022/11/11 09:27:39;;;;;;;32.20;19.33;;;10.90;99.90;;;;;;5089588;28;20372;-74
2022/11/11 09:30:06;;;;;;;37.40;21.05;;;10.90;99.90;;;;;;5089473;28;20044;-76
2022/11/11 09:32:32;;;;;;;31.30;20.48;;;10.90;99.90;;;;;;5089727;28;20127;-74
2022/11/11 09:34:59;;;;;;;30.35;19.92;;;10.90;99.90;;;;;;5089708;28;20698;-75
2022/11/11 09:37:24;;;;;;;31.85;19.88;;;11.10;99.90;;;;;;5089830;28;20040;-77
2022/11/11 09:39:50;;;;;;;28.25;18.88;;;10.90;99.90;;;;;;5089723;28;20173;-75
2022/11/11 09:42:44;;;;;;;29.48;18.90;;;11.20;99.90;;;;;;5089308;28;20036;-77
2022/11/11 09:45:12;;;;;;;28.75;19.77;;;10.90;99.90;;;;;;5070943;28;20044;-75
2022/11/11 09:48:17;;;;;;;32.35;19.98;;;10.80;99.90;;;;;;5091813;28;20118;-74
2022/11/11 09:50:53;;;;;;;47.97;20.75;;;10.80;99.90;;;;;;5090852;28;20044;-74
2022/11/11 09:53:31;;;;;;;33.00;20.55;;;11.10;99.90;;;;;;5077360;28;20050;-75
2022/11/11 09:56:02;;;;;;;30.33;19.58;;;10.80;99.90;;;;;;5091541;28;20042;-75
2022/11/11 09:58:36;;;;;;;36.17;20.58;;;10.80;99.90;;;;;;5075529;28;20048;-74
2022/11/11 10:01:08;;;;;;;29.83;19.63;;;10.80;99.90;;;;;;5075073;28;20060;-74
2022/11/11 10:03:40;;;;;;;28.17;19.25;;;10.80;99.90;;;;;;5093637;28;20382;-74
2022/11/11 10:06:11;;;;;;;26.48;18.00;;;10.80;99.90;;;;;;5093201;28;20051;-76
2022/11/11 10:08:50;;;;;;;32.85;18.75;;;10.80;99.90;;;;;;5074437;28;20052;-75
2022/11/11 10:11:43;;;;;;;31.48;19.92;;;10.90;99.90;;;;;;5093224;28;20140;-75
2022/11/11 10:14:09;;;;;;;28.98;19.13;;;10.80;99.90;;;;;;5092326;28;20056;-75
2022/11/11 10:16:40;;;;;;;33.45;19.83;;;10.80;99.90;;;;;;5092678;28;20060;-75
2022/11/11 10:19:24;;;;;;;30.00;19.92;;;10.80;99.90;;;;;;5092769;28;20560;-75
2022/11/11 10:21:51;;;;;;;31.20;19.63;;;11.10;99.90;;;;;;5092588;28;20058;-76
2022/11/11 10:24:25;;;;;;;33.30;19.85;;;10.80;99.90;;;;;;5092799;28;20039;-75
2022/11/11 10:26:51;;;;;;;27.65;19.63;;;10.80;99.90;;;;;;5092774;28;20052;-75
2022/11/11 10:29:19;;;;;;;30.35;19.85;;;11.10;99.90;;;;;;5074253;28;20047;-75
2022/11/11 10:32:04;;;;;;;31.75;19.48;;;10.90;99.90;;;;;;5092672;28;20048;-76
2022/11/11 10:34:34;;;;;;;27.35;18.90;;;10.80;99.90;;;;;;5092664;28;20773;-74
2022/11/11 10:37:00;;;;;;;30.02;18.65;;;10.80;99.90;;;;;;5074613;28;20493;-75
2022/11/11 10:39:45;;;;;;;25.98;18.98;;;11.00;99.90;;;;;;5092627;28;20048;-75
2022/11/11 10:42:16;;;;;;;29.40;17.95;;;10.90;99.90;;;;;;5074353;28;20052;-75
2022/11/11 10:44:43;;;;;;;28.90;19.27;;;10.90;99.90;;;;;;5074289;28;20055;-76
2022/11/11 10:47:15;;;;;;;28.45;19.13;;;10.90;99.90;;;;;;5091686;28;20085;-76
2022/11/11 10:50:03;;;;;;;29.70;18.35;;;10.90;99.90;;;;;;5092283;28;20059;-74
2022/11/11 10:52:38;;;;;;;28.63;18.75;;;10.90;99.90;;;;;;5092121;28;20051;-74
2022/11/11 10:55:06;;;;;;;;;;;11.10;99.90;;;;;;5092768;28;20054;-76
2022/11/11 10:57:58;;;;;;;29.33;19.52;;;11.00;99.90;;;;;;5091518;28;19931;-75
2022/11/11 11:00:24;;;;;;;26.60;18.00;;;11.20;99.90;;;;;;4989385;28;20061;-76
2022/11/11 11:03:03;;;;;;;28.80;17.80;;;11.50;99.90;;;;;;4989829;28;20062;-75
2022/11/11 11:05:49;;;;;;;29.20;19.80;;;11.00;99.90;;;;;;4990117;28;20054;-76
2022/11/11 11:08:20;;;;;;;29.42;19.08;;;11.00;99.90;;;;;;4989894;28;20054;-75
2022/11/11 11:10:59;;;;;;;29.20;18.92;;;11.00;99.90;;;;;;4990011;28;20879;-75
2022/11/11 11:13:41;;;;;;;26.52;18.73;;;11.10;99.90;;;;;;4990018;28;20059;-75
2022/11/11 11:16:14;;;;;;;24.38;17.60;;;11.10;99.90;;;;;;4990087;28;20042;-74
2022/11/11 11:18:40;;;;;;;27.52;18.10;;;11.10;99.90;;;;;;4989649;28;20066;-75
2022/11/11 11:21:07;;;;;;;28.30;18.65;;;11.40;99.90;;;;;;4989727;28;20058;-75
2022/11/11 11:23:40;;;;;;;29.58;18.08;;;11.20;99.90;;;;;;4989702;28;20533;-77
2022/11/11 11:26:07;;;;;;;28.70;18.38;;;11.10;99.90;;;;;;4989451;28;20463;-73
2022/11/11 11:28:33;;;;;;;27.95;18.25;;;11.20;99.90;;;;;;4989693;28;20138;-74
2022/11/11 11:31:04;;;;;;;34.63;16.73;;;11.30;99.90;;;;;;4989527;28;20472;-75
2022/11/11 11:33:53;;;;;;;28.05;18.02;;;11.10;99.90;;;;;;4989255;28;20042;-76
2022/11/11 11:36:19;;;;;;;25.88;16.67;;;11.20;99.90;;;;;;4996485;28;20154;-75
2022/11/11 11:38:49;;;;;;;24.60;16.52;;;11.20;99.90;;;;;;5090995;28;20185;-76
2022/11/11 11:41:15;;;;;;;29.27;17.73;;;11.20;99.90;;;;;;5091487;28;20040;-74
2022/11/11 11:43:42;;;;;;;27.55;17.02;;;11.50;99.90;;;;;;5091276;28;20121;-75
2022/11/11 11:46:26;;;;;;;23.48;16.35;;;11.20;99.90;;;;;;5091414;28;20042;-74
2022/11/11 11:49:00;;;;;;;25.02;17.33;;;11.20;99.90;;;;;;5090707;28;20082;-75
2022/11/11 11:51:41;;;;;;;26.52;16.27;;;11.20;99.90;;;;;;5091014;28;20063;-75
2022/11/11 11:54:10;;;;;;;28.90;17.17;;;11.60;99.90;;;;;;5090823;28;20109;-76
2022/11/11 11:56:37;;;;;;;23.08;16.02;;;11.20;99.90;;;;;;5090962;28;20093;-75
2022/11/11 11:59:19;;;;;;;25.08;16.88;;;11.80;99.90;;;;;;5091045;28;20047;-75
2022/11/11 12:02:06;;;;;;;26.05;16.27;;;11.20;99.90;;;;;;5090769;28;20059;-76
2022/11/11 12:04:53;;;;;;;27.58;17.15;;;11.20;99.90;;;;;;5089426;28;20393;-74
2022/11/11 12:07:36;;;;;;;24.40;16.15;;;11.20;99.90;;;;;;5090782;28;20044;-74
2022/11/11 12:10:20;;;;;;;24.98;17.00;;;11.20;99.90;;;;;;5090261;28;20090;-74
2022/11/11 12:12:55;;;;;;;23.40;16.75;;;11.20;99.90;;;;;;5090842;28;20391;-74
2022/11/11 12:15:47;;;;;;;19.85;15.27;;;11.20;99.90;;;;;;5090507;28;20074;-76
2022/11/11 12:18:38;;;;;;;27.63;17.10;;;11.20;99.90;;;;;;5072564;28;20056;-74
2022/11/11 12:21:12;;;;;;;23.50;15.60;;;11.20;99.90;;;;;;5055274;28;20448;-75
2022/11/11 12:24:00;;;;;;;25.65;16.73;;;11.20;99.90;;;;;;5090480;28;20059;-75
2022/11/11 12:27:04;;;;;;;27.25;16.42;;;11.20;99.90;;;;;;5090240;28;20123;-75
2022/11/11 12:30:09;;;;;;;26.27;16.95;;;11.20;99.90;;;;;;5090520;28;20048;-76
2022/11/11 12:33:19;;;;;;;24.50;16.08;;;11.20;99.90;;;;;;5071706;28;20056;-75
2022/11/11 12:36:05;;;;;;;22.88;16.30;;;11.40;99.90;;;;;;4987208;28;20047;-75
2022/11/11 12:38:49;;;;;;;33.50;16.63;;;11.20;99.90;;;;;;4988547;28;20046;-74
2022/11/11 12:41:33;;;;;;;24.65;15.05;;;11.20;99.90;;;;;;4988185;28;20054;-74
2022/11/11 12:44:12;;;;;;;24.80;17.47;;;11.30;99.90;;;;;;4988284;28;20046;-76
2022/11/11 12:47:05;;;;;;;29.25;18.08;;;11.20;99.90;;;;;;4988211;28;20105;-74
2022/11/11 12:49:45;;;;;;;26.48;17.13;;;11.20;99.90;;;;;;4988250;28;20499;-77
2022/11/11 12:52:29;;;;;;;28.10;17.95;;;11.20;99.90;;;;;;4987541;28;20648;-75
2022/11/11 12:55:21;;;;;;;27.27;17.37;;;11.20;99.90;;;;;;4968537;28;20054;-75
2022/11/11 12:58:10;;;;;;;25.20;17.55;;;11.20;99.90;;;;;;4967502;28;20305;-75
2022/11/11 13:00:49;;;;;;;28.67;17.42;;;11.20;99.90;;;;;;4968531;28;20144;-76
2022/11/11 13:03:49;;;;;;;27.77;16.33;;;11.20;99.90;;;;;;4984715;28;20043;-76
2022/11/11 13:06:22;;;;;;;26.00;17.17;;;11.20;99.90;;;;;;5030930;28;20059;-75
2022/11/11 13:09:03;;;;;;;27.83;18.85;;;11.20;99.90;;;;;;5090159;28;20134;-76
2022/11/11 13:12:06;;;;;;;27.15;17.38;;;11.20;99.90;;;;;;5089745;28;20488;-75
2022/11/11 13:14:44;;;;;;;26.17;17.80;;;11.10;99.90;;;;;;5089577;28;20056;-76
2022/11/11 13:17:14;;;;;;;27.35;18.42;;;11.20;99.90;;;;;;5089873;28;20143;-76
2022/11/11 13:19:51;;;;;;;26.17;17.90;;;11.10;99.90;;;;;;5089931;28;20040;-76
2022/11/11 13:22:23;;;;;;;28.55;17.63;;;11.10;99.90;;;;;;5091490;28;20055;-76
2022/11/11 13:24:50;;;;;;;28.10;17.88;;;11.10;99.90;;;;;;5093911;28;20048;-76
2022/11/11 13:27:34;;;;;;;27.27;17.45;;;11.50;99.90;;;;;;5075125;28;20048;-76
2022/11/11 13:30:03;;;;;;;28.13;18.13;;;11.30;99.90;;;;;;5093390;28;20070;-75
2022/11/11 13:32:49;;;;;;;28.67;18.00;;;11.20;99.90;;;;;;5087270;28;20124;-76
2022/11/11 13:35:27;;;;;;;27.85;17.70;;;11.10;99.90;;;;;;5073538;28;20044;-76
2022/11/11 13:37:53;;;;;;;29.33;18.35;;;11.20;99.90;;;;;;5073211;28;20056;-76
2022/11/11 13:40:41;;;;;;;28.55;18.10;;;11.10;99.90;;;;;;5073255;28;20040;-76
2022/11/11 13:43:27;;;;;;;27.02;17.00;;;11.50;99.90;;;;;;5073564;28;20040;-76
2022/11/11 13:45:55;;;;;;;28.27;16.60;;;11.20;99.90;;;;;;5068173;28;20057;-73
2022/11/11 13:48:27;;;;;;;24.38;16.02;;;11.20;99.90;;;;;;5089117;28;20051;-74
2022/11/11 13:51:08;;;;;;;26.38;16.95;;;11.20;99.90;;;;;;5055101;28;20044;-74
2022/11/11 13:53:36;;;;;;;33.95;17.50;;;11.70;99.90;;;;;;5086400;28;20483;-75
2022/11/11 13:56:03;;;;;;;25.35;15.23;;;11.10;99.90;;;;;;5093645;28;20067;-75
2022/11/11 13:58:46;;;;;;;27.08;17.08;;;11.20;99.90;;;;;;5074942;28;20054;-74
2022/11/11 14:01:12;;;;;;;22.58;16.20;;;11.20;99.90;;;;;;5092480;28;20058;-74